createdAt,value
2023-11-06T00:00:18.095Z,2.45
2023-11-06T00:02:47.010Z,1.75
2023-11-06T00:05:14.752Z,1.67
2023-11-06T00:07:42.304Z,2.05
2023-11-06T00:10:13.659Z,2.13
2023-11-06T00:12:41.334Z,1.98
2023-11-06T00:15:11.282Z,2.17
2023-11-06T00:17:38.966Z,1.40
2023-11-06T00:20:11.684Z,1.45
2023-11-06T00:22:39.681Z,1.48
2023-11-06T00:25:07.347Z,1.67
2023-11-06T00:27:35.524Z,2.00
2023-11-06T00:30:02.901Z,2.13
2023-11-06T00:32:30.251Z,2.10
2023-11-06T00:34:57.651Z,2.17
2023-11-06T00:37:25.343Z,1.90
2023-11-06T00:39:53.047Z,2.05
2023-11-06T00:42:20.453Z,1.85
2023-11-06T00:44:48.074Z,1.63
2023-11-06T00:47:15.423Z,1.95
2023-11-06T00:49:42.849Z,1.92
2023-11-06T00:52:10.592Z,1.90
2023-11-06T00:54:38.411Z,1.85
2023-11-06T00:57:06.809Z,1.80
2023-11-06T00:59:34.138Z,2.10
2023-11-06T01:02:02.736Z,2.15
2023-11-06T01:04:30.523Z,2.08
2023-11-06T01:06:58.585Z,2.10
2023-11-06T01:09:26.057Z,1.95
2023-11-06T01:11:53.481Z,2.05
2023-11-06T01:14:20.828Z,2.03
2023-11-06T01:16:48.197Z,1.70
2023-11-06T01:19:15.870Z,1.60
2023-11-06T01:21:43.161Z,1.58
2023-11-06T01:24:12.624Z,1.50
2023-11-06T01:26:44.207Z,1.35
2023-11-06T01:29:12.863Z,1.55
2023-11-06T01:31:40.569Z,1.50
2023-11-06T01:34:08.006Z,1.48
2023-11-06T01:36:35.504Z,1.65
2023-11-06T01:39:04.245Z,1.70
2023-11-06T01:41:31.500Z,1.83
2023-11-06T01:43:58.746Z,1.88
2023-11-06T01:46:26.095Z,1.55
2023-11-06T01:48:53.616Z,1.60
2023-11-06T01:51:20.927Z,1.42
2023-11-06T01:53:48.852Z,1.42
2023-11-06T01:56:17.656Z,1.70
2023-11-06T01:58:45.444Z,1.48
2023-11-06T02:01:13.744Z,1.83
2023-11-06T02:03:41.476Z,1.70
2023-11-06T02:06:09.104Z,1.50
2023-11-06T02:08:37.590Z,1.30
2023-11-06T02:11:05.338Z,1.48
2023-11-06T02:13:32.922Z,1.25
2023-11-06T02:16:00.915Z,1.02
2023-11-06T02:18:28.322Z,1.40
2023-11-06T02:20:58.737Z,1.70
2023-11-06T02:23:29.306Z,1.50
2023-11-06T02:25:56.759Z,1.15
2023-11-06T02:28:24.485Z,1.17
2023-11-06T02:30:54.060Z,1.42
2023-11-06T02:33:21.496Z,1.45
2023-11-06T02:35:51.620Z,1.30
2023-11-06T02:38:19.184Z,1.33
2023-11-06T02:40:46.520Z,1.73
2023-11-06T02:43:13.752Z,1.60
2023-11-06T02:45:41.312Z,1.30
2023-11-06T02:48:09.793Z,2.05
2023-11-06T02:50:37.242Z,1.40
2023-11-06T02:53:05.390Z,1.40
2023-11-06T02:55:33.755Z,1.92
2023-11-06T02:58:02.046Z,1.55
2023-11-06T03:00:29.543Z,1.90
2023-11-06T03:02:57.702Z,1.45
2023-11-06T03:05:25.096Z,1.02
2023-11-06T03:07:52.704Z,1.40
2023-11-06T03:10:20.075Z,1.33
2023-11-06T03:12:47.305Z,1.30
2023-11-06T03:15:14.801Z,1.30
2023-11-06T03:17:42.462Z,1.50
2023-11-06T03:20:12.704Z,1.98
2023-11-06T03:22:40.088Z,1.30
2023-11-06T03:25:08.108Z,1.42
2023-11-06T03:27:35.513Z,1.45
2023-11-06T03:30:02.787Z,2.20
2023-11-06T03:32:31.317Z,1.45
2023-11-06T03:34:58.845Z,1.60
2023-11-06T03:37:26.120Z,1.63
2023-11-06T03:39:54.083Z,1.27
2023-11-06T03:42:21.793Z,1.38
2023-11-06T03:44:51.003Z,1.60
2023-11-06T03:47:18.146Z,1.60
2023-11-06T03:49:45.357Z,1.60
2023-11-06T03:52:13.242Z,1.20
2023-11-06T03:54:41.429Z,1.55
2023-11-06T03:57:09.088Z,1.42
2023-11-06T03:59:36.417Z,1.65
2023-11-06T04:02:04.092Z,1.05
2023-11-06T04:04:32.394Z,1.77
2023-11-06T04:07:00.056Z,1.50
2023-11-06T04:09:27.308Z,1.60
2023-11-06T04:11:54.740Z,1.67
2023-11-06T04:14:21.833Z,1.42
2023-11-06T04:16:49.144Z,1.50
2023-11-06T04:19:16.389Z,2.00
2023-11-06T04:21:43.570Z,1.80
2023-11-06T04:24:11.488Z,1.67
2023-11-06T04:26:38.934Z,1.70
2023-11-06T04:29:06.577Z,1.70
2023-11-06T04:31:33.830Z,1.65
2023-11-06T04:34:01.084Z,2.15
2023-11-06T04:36:28.286Z,1.67
2023-11-06T04:38:55.502Z,1.73
2023-11-06T04:41:22.786Z,1.85
2023-11-06T04:43:50.042Z,1.42
2023-11-06T04:46:17.269Z,2.33
2023-11-06T04:48:44.438Z,2.97
2023-11-06T04:51:11.865Z,2.38
2023-11-06T04:53:40.628Z,2.95
2023-11-06T04:56:08.754Z,4.35
2023-11-06T04:58:37.131Z,3.85
2023-11-06T05:01:08.484Z,4.93
2023-11-06T05:03:36.555Z,5.63
2023-11-06T05:06:05.098Z,4.95
2023-11-06T05:08:32.817Z,4.97
2023-11-06T05:11:00.242Z,5.93
2023-11-06T05:13:27.543Z,4.63
2023-11-06T05:15:55.313Z,3.63
2023-11-06T05:18:22.522Z,3.22
2023-11-06T05:20:49.806Z,3.83
2023-11-06T05:23:16.994Z,5.05
2023-11-06T05:25:44.377Z,6.40
2023-11-06T05:28:11.641Z,7.00
2023-11-06T05:30:38.799Z,7.13
2023-11-06T05:33:06.892Z,7.38
2023-11-06T05:35:34.189Z,4.32
2023-11-06T05:38:01.761Z,3.38
2023-11-06T05:40:28.999Z,3.15
2023-11-06T05:42:56.120Z,3.10
2023-11-06T05:45:23.278Z,3.80
2023-11-06T05:47:50.617Z,3.28
2023-11-06T05:50:17.963Z,3.50
2023-11-06T05:52:46.980Z,4.38
2023-11-06T05:55:14.757Z,6.07
2023-11-06T05:57:44.634Z,7.15
2023-11-06T06:00:13.172Z,6.68
2023-11-06T06:02:41.578Z,5.63
2023-11-06T06:05:09.504Z,4.85
2023-11-06T06:07:36.872Z,5.50
2023-11-06T06:10:05.386Z,7.07
2023-11-06T06:12:34.448Z,8.15
2023-11-06T06:15:02.756Z,7.40
2023-11-06T06:17:30.763Z,6.68
2023-11-06T06:19:58.088Z,6.97
2023-11-06T06:22:26.424Z,8.07
2023-11-06T06:24:53.668Z,8.32
2023-11-06T06:27:21.095Z,8.15
2023-11-06T06:29:48.640Z,7.45
2023-11-06T06:32:16.092Z,6.53
2023-11-06T06:34:43.515Z,5.70
2023-11-06T06:37:11.268Z,3.92
2023-11-06T06:39:38.543Z,4.32
2023-11-06T06:42:06.144Z,3.95
2023-11-06T06:44:33.430Z,3.40
2023-11-06T06:47:00.702Z,3.90
2023-11-06T06:49:27.958Z,3.72
2023-11-06T06:51:55.641Z,2.85
2023-11-06T06:54:23.173Z,3.17
2023-11-06T06:56:51.439Z,3.13
2023-11-06T06:59:18.795Z,2.78
2023-11-06T07:01:46.442Z,3.55
2023-11-06T07:04:13.870Z,3.50
2023-11-06T07:06:41.195Z,2.80
2023-11-06T07:09:09.769Z,3.17
2023-11-06T07:11:37.113Z,2.65
2023-11-06T07:14:04.799Z,2.50
2023-11-06T07:16:32.148Z,2.85
2023-11-06T07:18:59.635Z,2.50
2023-11-06T07:21:26.816Z,3.22
2023-11-06T07:23:53.969Z,3.55
2023-11-06T07:26:22.214Z,4.50
2023-11-06T07:28:49.440Z,6.03
2023-11-06T07:31:16.792Z,4.90
2023-11-06T07:33:44.141Z,6.72
2023-11-06T07:36:11.660Z,6.03
2023-11-06T07:38:38.980Z,6.72
2023-11-06T07:41:06.197Z,7.47
2023-11-06T07:43:33.764Z,5.15
2023-11-06T07:46:01.008Z,4.55
2023-11-06T07:48:28.488Z,3.15
2023-11-06T07:50:56.411Z,2.65
2023-11-06T07:53:24.528Z,2.15
2023-11-06T07:55:51.940Z,2.47
2023-11-06T07:58:19.465Z,2.30
2023-11-06T08:00:50.320Z,3.30
2023-11-06T08:03:19.442Z,2.88
2023-11-06T08:05:47.081Z,3.03
2023-11-06T08:08:14.372Z,2.15
2023-11-06T08:10:42.768Z,2.53
2023-11-06T08:13:10.048Z,2.70
2023-11-06T08:15:37.749Z,2.22
2023-11-06T08:18:06.873Z,2.75
2023-11-06T08:20:34.297Z,2.60
2023-11-06T08:23:01.802Z,3.03
2023-11-06T08:25:29.456Z,2.13
2023-11-06T08:27:57.044Z,2.60
2023-11-06T08:30:24.620Z,2.80
2023-11-06T08:32:52.483Z,2.78
2023-11-06T08:35:20.272Z,2.20
2023-11-06T08:37:48.180Z,2.63
2023-11-06T08:40:18.730Z,3.25
2023-11-06T08:42:46.690Z,2.72
2023-11-06T08:45:14.756Z,2.92
2023-11-06T08:47:43.272Z,2.83
2023-11-06T08:50:10.957Z,2.55
2023-11-06T08:52:38.452Z,2.25
2023-11-06T08:55:07.389Z,2.13
2023-11-06T08:57:35.226Z,2.20
2023-11-06T09:00:02.898Z,2.10
2023-11-06T09:02:31.970Z,2.28
2023-11-06T09:05:00.128Z,1.92
2023-11-06T09:07:28.762Z,2.53
2023-11-06T09:09:56.287Z,2.28
2023-11-06T09:12:23.887Z,2.28
2023-11-06T09:14:51.572Z,1.70
2023-11-06T09:17:18.830Z,2.42
2023-11-06T09:19:47.408Z,2.33
2023-11-06T09:22:15.307Z,2.65
2023-11-06T09:24:43.599Z,2.10
2023-11-06T09:27:11.504Z,2.45
2023-11-06T09:29:39.015Z,2.47
2023-11-06T09:32:08.533Z,2.22
2023-11-06T09:34:37.590Z,2.45
2023-11-06T09:37:04.870Z,2.72
2023-11-06T09:39:33.065Z,2.88
2023-11-06T09:42:00.578Z,2.60
2023-11-06T09:44:29.601Z,2.38
2023-11-06T09:46:57.673Z,2.38
2023-11-06T09:49:28.446Z,2.40
2023-11-06T09:51:56.841Z,2.45
2023-11-06T09:54:27.362Z,2.60
2023-11-06T09:56:55.307Z,3.00
2023-11-06T09:59:23.319Z,3.33
2023-11-06T10:01:54.362Z,2.75
2023-11-06T10:04:22.849Z,2.90
2023-11-06T10:06:51.438Z,2.50
2023-11-06T10:09:23.163Z,2.22
2023-11-06T10:11:53.457Z,2.45
2023-11-06T10:14:20.892Z,2.42
2023-11-06T10:16:48.174Z,2.35
2023-11-06T10:19:17.614Z,2.63
2023-11-06T10:21:45.005Z,2.13
2023-11-06T10:24:15.605Z,2.45
2023-11-06T10:26:43.962Z,2.58
2023-11-06T10:29:18.604Z,3.25
2023-11-06T10:31:47.365Z,3.80
2023-11-06T10:34:32.539Z,4.43
2023-11-06T10:37:01.819Z,5.40
2023-11-06T10:39:31.298Z,5.68
2023-11-06T10:42:04.144Z,5.70
2023-11-06T10:44:35.604Z,7.15
2023-11-06T10:47:07.313Z,7.15
2023-11-06T10:49:43.466Z,6.88
2023-11-06T10:52:11.718Z,7.00
2023-11-06T10:54:40.521Z,5.95
2023-11-06T10:57:09.171Z,5.95
2023-11-06T10:59:36.596Z,5.32
2023-11-06T11:02:05.777Z,4.07
2023-11-06T11:04:34.542Z,3.80
2023-11-06T11:07:02.262Z,3.40
2023-11-06T11:09:31.427Z,3.25
2023-11-06T11:11:58.946Z,3.08
2023-11-06T11:14:26.407Z,2.85
2023-11-06T11:16:54.442Z,3.58
2023-11-06T11:19:28.527Z,2.47
2023-11-06T11:22:11.813Z,5.32
2023-11-06T11:24:46.160Z,5.35
2023-11-06T11:27:14.998Z,5.05
2023-11-06T11:29:54.742Z,6.88
2023-11-06T11:32:22.867Z,7.05
2023-11-06T11:34:50.536Z,2.45
2023-11-06T11:37:33.107Z,3.55
2023-11-06T11:40:01.260Z,5.00
2023-11-06T11:42:29.812Z,3.33
2023-11-06T11:45:00.545Z,3.53
2023-11-06T11:47:49.563Z,3.95
2023-11-06T11:50:37.767Z,4.65
2023-11-06T11:53:05.704Z,4.30
2023-11-06T11:55:36.541Z,3.33
2023-11-06T11:58:15.410Z,2.47
2023-11-06T12:00:45.985Z,1.35
2023-11-06T12:03:18.329Z,1.73
2023-11-06T12:05:49.174Z,1.10
2023-11-06T12:08:27.019Z,0.70
2023-11-06T12:10:58.374Z,0.60
2023-11-06T12:13:26.461Z,0.43
2023-11-06T12:15:54.454Z,0.57
2023-11-06T12:18:25.681Z,0.60
2023-11-06T12:20:58.366Z,0.60
2023-11-06T12:23:38.246Z,0.88
2023-11-06T12:26:10.601Z,1.85
2023-11-06T12:28:45.532Z,3.65
2023-11-06T12:31:13.579Z,3.85
2023-11-06T12:33:41.194Z,5.03
2023-11-06T12:36:08.897Z,3.65
2023-11-06T12:38:37.941Z,1.10
2023-11-06T12:41:06.242Z,1.63
2023-11-06T12:43:33.671Z,2.55
2023-11-06T12:46:01.079Z,1.95
2023-11-06T12:48:33.936Z,0.60
2023-11-06T12:51:10.642Z,0.90
2023-11-06T12:53:40.167Z,0.60
2023-11-06T12:56:08.468Z,0.70
2023-11-06T12:58:37.903Z,0.43
2023-11-06T13:01:19.619Z,0.68
2023-11-06T13:03:47.399Z,0.90
2023-11-06T13:06:17.030Z,1.10
2023-11-06T13:08:44.728Z,1.50
2023-11-06T13:11:13.663Z,1.80
2023-11-06T13:13:44.240Z,1.38
2023-11-06T13:16:12.028Z,2.28
2023-11-06T13:18:41.040Z,2.63
2023-11-06T13:21:20.597Z,2.67
2023-11-06T13:23:48.382Z,3.30
2023-11-06T13:26:16.788Z,4.07
2023-11-06T13:28:44.791Z,5.35
2023-11-06T13:31:15.401Z,4.95
2023-11-06T13:33:45.511Z,5.45
2023-11-06T13:36:13.187Z,4.70
2023-11-06T13:38:42.415Z,4.40
2023-11-06T13:41:15.014Z,3.90
2023-11-06T13:43:42.304Z,4.47
2023-11-06T13:46:09.499Z,4.25
2023-11-06T13:48:40.487Z,3.88
2023-11-06T13:51:29.021Z,3.40
2023-11-06T13:54:03.350Z,3.45
2023-11-06T13:56:39.404Z,2.20
2023-11-06T13:59:11.041Z,2.08
2023-11-06T14:01:49.684Z,2.10
2023-11-06T14:04:21.185Z,2.13
2023-11-06T14:06:52.292Z,2.47
2023-11-06T14:09:38.777Z,2.15
2023-11-06T14:12:11.725Z,1.90
2023-11-06T14:14:39.979Z,1.73
2023-11-06T14:17:07.340Z,1.73
2023-11-06T14:19:35.257Z,2.13
2023-11-06T14:22:07.656Z,2.13
2023-11-06T14:24:37.203Z,2.10
2023-11-06T14:27:06.312Z,1.92
2023-11-06T14:29:34.042Z,2.20
2023-11-06T14:32:01.471Z,2.25
2023-11-06T14:34:29.001Z,1.75
2023-11-06T14:36:56.289Z,2.00
2023-11-06T14:39:24.338Z,2.28
2023-11-06T14:41:51.616Z,2.80
2023-11-06T14:44:19.851Z,2.63
2023-11-06T14:46:48.049Z,2.38
2023-11-06T14:49:16.661Z,2.63
2023-11-06T14:51:44.267Z,2.28
2023-11-06T14:54:11.780Z,2.00
2023-11-06T14:56:39.320Z,2.25
2023-11-06T14:59:07.412Z,1.90
2023-11-06T15:01:35.825Z,1.80
2023-11-06T15:04:03.407Z,1.70
2023-11-06T15:06:30.888Z,1.58
2023-11-06T15:08:58.218Z,1.63
2023-11-06T15:11:33.555Z,2.20
2023-11-06T15:14:02.109Z,1.60
2023-11-06T15:16:31.353Z,1.67
2023-11-06T15:18:59.559Z,1.42
2023-11-06T15:21:27.498Z,1.63
2023-11-06T15:23:55.107Z,1.50
2023-11-06T15:26:22.406Z,1.52
2023-11-06T15:28:49.751Z,1.70
2023-11-06T15:31:17.061Z,2.05
2023-11-06T15:33:47.446Z,2.03
2023-11-06T15:36:14.958Z,1.60
2023-11-06T15:38:42.213Z,1.58
2023-11-06T15:41:09.441Z,1.75
2023-11-06T15:43:38.853Z,1.17
2023-11-06T15:46:07.600Z,1.75
2023-11-06T15:48:39.119Z,1.75
2023-11-06T15:51:09.813Z,1.40
2023-11-06T15:53:37.564Z,1.92
2023-11-06T15:56:13.049Z,1.70
2023-11-06T15:58:41.551Z,1.80
2023-11-06T16:01:08.988Z,1.85
2023-11-06T16:03:36.634Z,1.55
2023-11-06T16:06:04.229Z,1.33
2023-11-06T16:08:34.141Z,1.45
2023-11-06T16:11:01.563Z,1.50
2023-11-06T16:13:29.212Z,1.33
2023-11-06T16:15:56.349Z,1.45
2023-11-06T16:18:24.540Z,1.60
2023-11-06T16:20:51.851Z,1.55
2023-11-06T16:23:19.269Z,1.73
2023-11-06T16:25:46.594Z,1.80
2023-11-06T16:28:15.162Z,2.28
2023-11-06T16:30:42.384Z,1.70
2023-11-06T16:33:10.853Z,2.13
2023-11-06T16:35:38.428Z,1.63
2023-11-06T16:38:05.911Z,2.03
2023-11-06T16:40:33.222Z,1.15
2023-11-06T16:43:00.982Z,1.40
2023-11-06T16:45:28.226Z,1.60
2023-11-06T16:47:55.629Z,1.50
2023-11-06T16:50:25.765Z,1.17
2023-11-06T16:52:53.489Z,1.40
2023-11-06T16:55:21.510Z,1.60
2023-11-06T16:57:48.946Z,1.58
2023-11-06T17:00:16.417Z,1.88
2023-11-06T17:02:44.266Z,1.95
2023-11-06T17:05:12.093Z,2.03
2023-11-06T17:07:39.352Z,1.60
2023-11-06T17:10:07.479Z,1.90
2023-11-06T17:12:34.945Z,1.80
2023-11-06T17:15:02.380Z,1.95
2023-11-06T17:17:30.243Z,2.42
2023-11-06T17:19:58.820Z,2.85
2023-11-06T17:22:26.211Z,2.00
2023-11-06T17:24:53.471Z,2.15
2023-11-06T17:27:22.267Z,2.58
2023-11-06T17:29:49.824Z,2.40
2023-11-06T17:32:17.026Z,2.03
2023-11-06T17:34:44.252Z,2.00
2023-11-06T17:37:11.511Z,2.00
2023-11-06T17:39:38.928Z,2.08
2023-11-06T17:42:06.871Z,1.50
2023-11-06T17:44:34.463Z,2.03
2023-11-06T17:47:01.819Z,1.90
2023-11-06T17:49:29.334Z,2.05
2023-11-06T17:51:56.717Z,1.85
2023-11-06T17:54:24.223Z,1.48
2023-11-06T17:56:52.665Z,1.75
2023-11-06T17:59:19.928Z,1.83
2023-11-06T18:01:47.811Z,1.80
2023-11-06T18:04:15.742Z,1.80
2023-11-06T18:06:44.192Z,2.17
2023-11-06T18:09:12.756Z,1.77
2023-11-06T18:11:42.346Z,1.90
2023-11-06T18:14:09.791Z,1.65
2023-11-06T18:16:37.242Z,1.75
2023-11-06T18:19:04.669Z,2.05
2023-11-06T18:21:33.603Z,2.13
2023-11-06T18:24:01.400Z,2.15
2023-11-06T18:26:28.894Z,1.90
2023-11-06T18:28:56.107Z,1.60
2023-11-06T18:31:26.943Z,1.85
2023-11-06T18:33:56.145Z,2.10
2023-11-06T18:36:24.249Z,1.63
2023-11-06T18:38:51.759Z,1.92
2023-11-06T18:41:19.711Z,1.80
2023-11-06T18:43:47.142Z,1.60
2023-11-06T18:46:15.073Z,1.67
2023-11-06T18:48:42.939Z,2.00
2023-11-06T18:51:10.457Z,2.13
2023-11-06T18:53:38.163Z,2.00
2023-11-06T18:56:06.171Z,1.90
2023-11-06T18:58:33.416Z,2.63
2023-11-06T19:01:00.682Z,2.28
2023-11-06T19:03:34.069Z,1.98
2023-11-06T19:06:02.382Z,2.00
2023-11-06T19:08:30.164Z,2.70
2023-11-06T19:11:00.958Z,2.20
2023-11-06T19:13:29.066Z,3.20
2023-11-06T19:15:57.662Z,2.65
2023-11-06T19:18:26.080Z,3.03
2023-11-06T19:20:53.809Z,2.53
2023-11-06T19:23:21.046Z,2.45
2023-11-06T19:25:48.367Z,2.45
2023-11-06T19:28:16.310Z,2.33
2023-11-06T19:30:43.888Z,2.55
2023-11-06T19:33:12.590Z,2.47
2023-11-06T19:35:41.196Z,2.47
2023-11-06T19:38:08.367Z,3.15
2023-11-06T19:40:35.862Z,3.30
2023-11-06T19:43:03.202Z,3.10
2023-11-06T19:45:30.487Z,2.60
2023-11-06T19:47:57.875Z,2.33
2023-11-06T19:50:25.259Z,2.25
2023-11-06T19:52:52.791Z,2.25
2023-11-06T19:55:22.320Z,2.10
2023-11-06T19:57:50.041Z,2.42
2023-11-06T20:00:17.496Z,2.80
2023-11-06T20:02:47.384Z,2.97
2023-11-06T20:05:16.413Z,2.83
2023-11-06T20:07:45.754Z,2.90
2023-11-06T20:10:13.543Z,3.08
2023-11-06T20:12:40.805Z,2.75
2023-11-06T20:15:09.896Z,2.65
2023-11-06T20:17:37.764Z,3.72
2023-11-06T20:20:07.131Z,3.35
2023-11-06T20:22:34.822Z,2.97
2023-11-06T20:25:04.414Z,3.25
2023-11-06T20:27:32.225Z,4.07
2023-11-06T20:29:59.598Z,4.35
2023-11-06T20:32:27.087Z,5.85
2023-11-06T20:34:54.884Z,5.32
2023-11-06T20:37:22.322Z,4.28
2023-11-06T20:39:49.699Z,4.38
2023-11-06T20:42:18.596Z,3.70
2023-11-06T20:44:47.223Z,3.30
2023-11-06T20:47:14.740Z,4.03
2023-11-06T20:49:41.872Z,4.18
2023-11-06T20:52:09.945Z,4.47
2023-11-06T20:54:40.210Z,5.15
2023-11-06T20:57:08.981Z,5.95
2023-11-06T20:59:36.777Z,5.25
2023-11-06T21:02:05.763Z,5.50
2023-11-06T21:04:33.281Z,4.40
2023-11-06T21:07:00.809Z,4.80
2023-11-06T21:09:28.117Z,4.80
2023-11-06T21:11:55.705Z,5.65
2023-11-06T21:14:23.080Z,5.88
2023-11-06T21:16:53.202Z,5.45
2023-11-06T21:19:21.792Z,6.78
2023-11-06T21:21:49.230Z,6.00
2023-11-06T21:24:16.479Z,5.78
2023-11-06T21:26:44.285Z,5.50
2023-11-06T21:29:11.755Z,4.40
2023-11-06T21:31:38.971Z,4.47
2023-11-06T21:34:09.116Z,4.78
2023-11-06T21:36:36.539Z,4.97
2023-11-06T21:39:05.031Z,4.88
2023-11-06T21:41:32.514Z,3.75
2023-11-06T21:43:59.936Z,3.22
2023-11-06T21:46:27.246Z,3.08
2023-11-06T21:48:54.623Z,3.35
2023-11-06T21:51:22.661Z,3.47
2023-11-06T21:53:50.647Z,2.58
2023-11-06T21:56:18.301Z,2.55
2023-11-06T21:58:47.709Z,2.63
2023-11-06T22:01:20.123Z,2.78
2023-11-06T22:03:48.058Z,2.95
2023-11-06T22:06:15.401Z,2.50
2023-11-06T22:08:42.689Z,2.90
2023-11-06T22:11:10.077Z,2.65
2023-11-06T22:13:37.362Z,3.00
2023-11-06T22:16:04.966Z,3.20
2023-11-06T22:18:32.446Z,3.40
2023-11-06T22:20:59.740Z,3.60
2023-11-06T22:23:26.961Z,4.00
2023-11-06T22:25:54.383Z,3.67
2023-11-06T22:28:25.273Z,3.70
2023-11-06T22:30:52.588Z,4.07
2023-11-06T22:33:21.098Z,3.38
2023-11-06T22:35:48.522Z,3.70
2023-11-06T22:38:16.576Z,3.70
2023-11-06T22:40:43.757Z,4.78
2023-11-06T22:43:10.922Z,5.63
2023-11-06T22:45:38.086Z,5.32
2023-11-06T22:48:07.025Z,6.00
2023-11-06T22:50:34.604Z,5.20
2023-11-06T22:53:02.510Z,4.93
2023-11-06T22:55:30.096Z,5.10
2023-11-06T22:57:57.341Z,4.47
2023-11-06T23:00:28.923Z,4.43
2023-11-06T23:02:58.001Z,4.15
2023-11-06T23:05:26.318Z,3.88
2023-11-06T23:07:56.418Z,3.95
2023-11-06T23:10:23.581Z,3.60
2023-11-06T23:12:51.674Z,2.97
2023-11-06T23:15:19.154Z,3.50
2023-11-06T23:17:48.629Z,3.85
2023-11-06T23:20:16.236Z,3.70
2023-11-06T23:22:43.853Z,3.47
2023-11-06T23:25:13.064Z,3.80
2023-11-06T23:27:42.052Z,4.95
2023-11-06T23:30:09.980Z,5.53
2023-11-06T23:32:37.705Z,6.38
2023-11-06T23:35:05.464Z,5.57
2023-11-06T23:37:32.771Z,6.03
2023-11-06T23:39:59.974Z,6.25
2023-11-06T23:42:27.339Z,6.60
2023-11-06T23:44:55.188Z,6.68
2023-11-06T23:47:22.697Z,6.88
2023-11-06T23:49:50.521Z,6.78
2023-11-06T23:52:17.861Z,7.00
2023-11-06T23:54:46.929Z,6.25
2023-11-06T23:57:14.236Z,5.32
2023-11-06T23:59:41.648Z,5.93
